Time;durP1;ratioP1;P1;durP2;ratioP2;P2;SDS_P1;SDS_P2;PMS_P1;PMS_P2;Temp;Humidity;BMP_temperature;BMP_pressure;BME280_temperature;BME280_humidity;BME280_pressure;Samples;Min_cycle;Max_cycle;Signal;HPM_P1;HPM_P2
2024/01/14 00:00:09;;;;;;;11.85;2.88;;;;;;;;;;6312405;22;20016;-80
2024/01/14 00:02:37;;;;;;;8.15;2.63;;;;;;;;;;6312046;22;20015;-80
2024/01/14 00:05:03;;;;;;;9.13;2.20;;;;;;;;;;6310944;22;20079;-80
2024/01/14 00:07:29;;;;;;;9.45;2.28;;;;;;;;;;6311663;22;20017;-80
2024/01/14 00:09:57;;;;;;;6.93;2.00;;;;;;;;;;6311162;22;20015;-81
2024/01/14 00:12:23;;;;;;;8.00;2.25;;;;;;;;;;6282707;22;20015;-81
2024/01/14 00:14:49;;;;;;;11.85;2.20;;;;;;;;;;6310528;22;20061;-81
2024/01/14 00:17:15;;;;;;;12.25;2.63;;;;;;;;;;6310953;22;20012;-80
2024/01/14 00:19:42;;;;;;;11.18;3.10;;;;;;;;;;6311657;22;20015;-80
2024/01/14 00:22:08;;;;;;;14.55;3.08;;;;;;;;;;6311655;22;20016;-80
2024/01/14 00:24:35;;;;;;;18.13;3.15;;;;;;;;;;6311724;22;20022;-80
2024/01/14 00:27:01;;;;;;;12.07;3.20;;;;;;;;;;6311064;22;20500;-81
2024/01/14 00:29:27;;;;;;;9.23;2.28;;;;;;;;;;6311745;22;20061;-81
2024/01/14 00:31:53;;;;;;;8.95;2.10;;;;;;;;;;6311647;22;20015;-80
2024/01/14 00:34:22;;;;;;;11.35;2.20;;;;;;;;;;6311743;22;20103;-81
2024/01/14 00:36:48;;;;;;;10.43;2.65;;;;;;;;;;6311329;22;20023;-81
2024/01/14 00:39:14;;;;;;;11.10;2.53;;;;;;;;;;6284403;22;20348;-80
2024/01/14 00:41:40;;;;;;;11.52;2.28;;;;;;;;;;6312958;22;20452;-81
2024/01/14 00:44:06;;;;;;;10.27;2.35;;;;;;;;;;6285670;22;20521;-81
2024/01/14 00:46:32;;;;;;;10.93;2.10;;;;;;;;;;6313844;22;20061;-81
2024/01/14 00:48:58;;;;;;;8.18;2.28;;;;;;;;;;6312683;22;20027;-80
2024/01/14 00:51:24;;;;;;;6.35;1.70;;;;;;;;;;6285833;22;20090;-81
2024/01/14 00:53:50;;;;;;;2.45;1.38;;;;;;;;;;6312858;22;20031;-80
2024/01/14 00:56:16;;;;;;;5.85;2.00;;;;;;;;;;6312148;22;20034;-80
2024/01/14 00:58:43;;;;;;;7.88;1.80;;;;;;;;;;6312947;22;20023;-81
2024/01/14 01:01:09;;;;;;;7.40;2.25;;;;;;;;;;6285641;22;20019;-81
2024/01/14 01:03:35;;;;;;;5.60;1.63;;;;;;;;;;6313708;22;20015;-80
2024/01/14 01:06:01;;;;;;;4.32;1.80;;;;;;;;;;6285919;22;20019;-81
2024/01/14 01:08:27;;;;;;;9.25;2.53;;;;;;;;;;6312856;22;20019;-80
2024/01/14 01:10:53;;;;;;;5.93;1.90;;;;;;;;;;6312529;22;20015;-81
2024/01/14 01:13:19;;;;;;;11.18;2.42;;;;;;;;;;6285239;22;20019;-81
2024/01/14 01:15:45;;;;;;;7.40;2.28;;;;;;;;;;6286508;22;20133;-81
2024/01/14 01:18:11;;;;;;;11.80;2.20;;;;;;;;;;6285781;22;20183;-80
2024/01/14 01:20:37;;;;;;;11.32;2.00;;;;;;;;;;6313018;22;20015;-80
2024/01/14 01:23:03;;;;;;;7.78;2.22;;;;;;;;;;6313250;22;20394;-81
2024/01/14 01:25:30;;;;;;;7.90;2.22;;;;;;;;;;6285158;22;20419;-81
2024/01/14 01:27:56;;;;;;;7.50;2.42;;;;;;;;;;6314308;22;20027;-80
2024/01/14 01:30:22;;;;;;;7.35;2.20;;;;;;;;;;6313792;22;20023;-81
2024/01/14 01:32:49;;;;;;;12.13;2.55;;;;;;;;;;6260665;22;20019;-81
2024/01/14 01:35:15;;;;;;;11.45;2.70;;;;;;;;;;6313796;22;20019;-81
2024/01/14 01:37:41;;;;;;;15.70;2.53;;;;;;;;;;6286530;22;20015;-81
2024/01/14 01:40:09;;;;;;;16.13;2.70;;;;;;;;;;6314126;22;20019;-81
2024/01/14 01:42:35;;;;;;;13.15;2.53;;;;;;;;;;6313146;22;20025;-81
2024/01/14 01:45:01;;;;;;;12.25;2.60;;;;;;;;;;6313500;22;20023;-81
2024/01/14 01:47:28;;;;;;;22.00;3.33;;;;;;;;;;6313546;22;20348;-81
2024/01/14 01:49:54;;;;;;;15.40;2.83;;;;;;;;;;6313378;22;20086;-80
2024/01/14 01:52:20;;;;;;;15.32;3.78;;;;;;;;;;6313251;22;20491;-80
2024/01/14 01:54:47;;;;;;;14.07;3.00;;;;;;;;;;6313800;22;20463;-80
2024/01/14 01:57:13;;;;;;;14.13;2.85;;;;;;;;;;6313986;22;20519;-81
2024/01/14 01:59:40;;;;;;;11.48;2.65;;;;;;;;;;6313903;22;20524;-81
2024/01/14 02:02:06;;;;;;;14.55;3.00;;;;;;;;;;6313112;22;20523;-80
2024/01/14 02:04:32;;;;;;;15.23;3.30;;;;;;;;;;6314077;22;20062;-80
2024/01/14 02:06:58;;;;;;;14.55;3.30;;;;;;;;;;6285773;22;20060;-81
2024/01/14 02:09:24;;;;;;;18.55;3.80;;;;;;;;;;6286011;22;20034;-81
2024/01/14 02:11:50;;;;;;;12.30;2.55;;;;;;;;;;6313287;22;20026;-81
2024/01/14 02:14:16;;;;;;;12.98;3.25;;;;;;;;;;6286483;22;20022;-81
2024/01/14 02:16:42;;;;;;;10.65;2.65;;;;;;;;;;6285086;22;20015;-80
2024/01/14 02:19:08;;;;;;;11.65;3.20;;;;;;;;;;6285070;22;20451;-80
2024/01/14 02:21:41;;;;;;;7.93;2.08;;;;;;;;;;6311828;22;20030;-80
2024/01/14 02:24:17;;;;;;;9.85;2.67;;;;;;;;;;6313159;22;20007;-80
2024/01/14 02:26:43;;;;;;;9.52;2.33;;;;;;;;;;6285465;22;20387;-80
2024/01/14 02:29:11;;;;;;;11.10;3.15;;;;;;;;;;6313213;22;20041;-80
2024/01/14 02:31:37;;;;;;;10.70;2.55;;;;;;;;;;6313038;22;20088;-80
2024/01/14 02:34:06;;;;;;;11.02;2.97;;;;;;;;;;6313734;22;20015;-81
2024/01/14 02:36:33;;;;;;;14.95;2.85;;;;;;;;;;6313427;22;20015;-80
2024/01/14 02:38:59;;;;;;;14.13;2.67;;;;;;;;;;6313582;22;20019;-81
2024/01/14 02:41:25;;;;;;;15.90;3.33;;;;;;;;;;6313173;22;20015;-81
2024/01/14 02:43:51;;;;;;;15.30;3.17;;;;;;;;;;6313341;22;20012;-81
2024/01/14 02:46:17;;;;;;;12.65;2.90;;;;;;;;;;6285463;22;20115;-80
2024/01/14 02:48:43;;;;;;;13.35;3.75;;;;;;;;;;6312742;22;20030;-81
2024/01/14 02:51:09;;;;;;;9.82;2.60;;;;;;;;;;6285354;22;20016;-82
2024/01/14 02:53:35;;;;;;;12.30;3.45;;;;;;;;;;6313104;22;20019;-80
2024/01/14 02:56:01;;;;;;;13.23;2.90;;;;;;;;;;6285710;22;20344;-80
2024/01/14 02:58:27;;;;;;;9.27;2.17;;;;;;;;;;6312578;22;20034;-80
2024/01/14 03:00:54;;;;;;;9.52;2.45;;;;;;;;;;6313159;22;20015;-80
2024/01/14 03:03:21;;;;;;;5.40;2.55;;;;;;;;;;6285621;22;20415;-79
2024/01/14 03:05:47;;;;;;;7.18;2.35;;;;;;;;;;6285270;22;20015;-80
2024/01/14 03:08:13;;;;;;;8.57;2.10;;;;;;;;;;6307554;22;20011;-80
2024/01/14 03:10:39;;;;;;;9.82;2.55;;;;;;;;;;6308636;22;20016;-80
2024/01/14 03:13:05;;;;;;;11.73;2.70;;;;;;;;;;6308974;22;20047;-80
2024/01/14 03:15:31;;;;;;;12.60;2.47;;;;;;;;;;6309151;22;20022;-80
2024/01/14 03:17:57;;;;;;;7.40;3.25;;;;;;;;;;6282376;22;20064;-79
2024/01/14 03:20:23;;;;;;;9.43;2.53;;;;;;;;;;6309241;22;20023;-80
2024/01/14 03:22:49;;;;;;;10.60;2.50;;;;;;;;;;6309099;22;20015;-80
2024/01/14 03:25:15;;;;;;;10.05;2.78;;;;;;;;;;6309784;22;20033;-80
2024/01/14 03:27:41;;;;;;;10.63;2.90;;;;;;;;;;6309671;22;20325;-80
2024/01/14 03:30:08;;;;;;;13.73;3.30;;;;;;;;;;6309418;22;20467;-80
2024/01/14 03:32:34;;;;;;;13.20;3.28;;;;;;;;;;6309041;22;20090;-80
2024/01/14 03:35:00;;;;;;;14.30;2.65;;;;;;;;;;6307607;22;20164;-80
2024/01/14 03:37:26;;;;;;;13.90;2.85;;;;;;;;;;6307515;22;20424;-80
2024/01/14 03:39:53;;;;;;;18.85;3.33;;;;;;;;;;6309607;22;20025;-80
2024/01/14 03:42:19;;;;;;;14.77;2.95;;;;;;;;;;6309207;22;20053;-81
2024/01/14 03:44:45;;;;;;;10.75;2.83;;;;;;;;;;6256521;22;20016;-80
2024/01/14 03:47:11;;;;;;;13.40;2.72;;;;;;;;;;6309525;22;20027;-80
2024/01/14 03:49:37;;;;;;;5.75;2.10;;;;;;;;;;6309679;22;20073;-80
2024/01/14 03:52:03;;;;;;;13.90;2.40;;;;;;;;;;6282145;22;20505;-79
2024/01/14 03:54:29;;;;;;;9.13;3.25;;;;;;;;;;6310305;22;20011;-79
2024/01/14 03:56:55;;;;;;;17.13;3.58;;;;;;;;;;6282352;22;20427;-80
2024/01/14 03:59:21;;;;;;;12.02;2.90;;;;;;;;;;6282490;22;20444;-80
2024/01/14 04:01:47;;;;;;;12.38;2.58;;;;;;;;;;6283230;22;20089;-80
2024/01/14 04:04:13;;;;;;;8.80;2.22;;;;;;;;;;6283424;22;20052;-80
2024/01/14 04:06:39;;;;;;;15.23;3.20;;;;;;;;;;6310876;22;20015;-80
2024/01/14 04:09:05;;;;;;;9.73;2.17;;;;;;;;;;6310947;22;20015;-80
2024/01/14 04:11:31;;;;;;;19.85;3.15;;;;;;;;;;6310410;22;20072;-80
2024/01/14 04:13:57;;;;;;;14.60;2.70;;;;;;;;;;6310184;22;20046;-80
2024/01/14 04:16:24;;;;;;;7.75;2.75;;;;;;;;;;6310410;22;20030;-80
2024/01/14 04:18:50;;;;;;;10.25;2.28;;;;;;;;;;6309931;22;20015;-80
2024/01/14 04:21:23;;;;;;;12.38;3.05;;;;;;;;;;6309324;22;20474;-80
2024/01/14 04:23:49;;;;;;;15.40;2.75;;;;;;;;;;6310173;22;20023;-80
2024/01/14 04:26:18;;;;;;;14.82;3.25;;;;;;;;;;6311010;22;20335;-80
2024/01/14 04:28:44;;;;;;;14.13;2.67;;;;;;;;;;6310969;22;20011;-80
2024/01/14 04:31:11;;;;;;;11.43;2.80;;;;;;;;;;6310987;22;20015;-80
2024/01/14 04:33:37;;;;;;;14.40;3.30;;;;;;;;;;6311374;22;20053;-80
2024/01/14 04:36:04;;;;;;;11.38;2.83;;;;;;;;;;6311123;22;20023;-81
2024/01/14 04:38:30;;;;;;;17.38;3.45;;;;;;;;;;6311695;22;20016;-81
2024/01/14 04:40:56;;;;;;;13.02;3.05;;;;;;;;;;6311284;22;20039;-80
2024/01/14 04:43:22;;;;;;;12.65;3.25;;;;;;;;;;6283427;22;20020;-80
2024/01/14 04:45:48;;;;;;;16.42;3.10;;;;;;;;;;6311117;22;20078;-80
2024/01/14 04:48:14;;;;;;;14.90;3.10;;;;;;;;;;6283551;22;20019;-80
2024/01/14 04:50:40;;;;;;;12.40;3.28;;;;;;;;;;6257889;22;20062;-81
2024/01/14 04:53:07;;;;;;;11.75;2.85;;;;;;;;;;6308932;22;20016;-80
2024/01/14 04:55:33;;;;;;;11.32;2.65;;;;;;;;;;6308673;22;20030;-80
2024/01/14 04:57:59;;;;;;;14.60;3.45;;;;;;;;;;6282233;22;20390;-80
2024/01/14 05:00:25;;;;;;;15.25;2.88;;;;;;;;;;6310123;22;20019;-80
2024/01/14 05:02:51;;;;;;;21.13;3.35;;;;;;;;;;6310446;22;20111;-80
2024/01/14 05:05:17;;;;;;;14.07;3.25;;;;;;;;;;6310380;22;20043;-80
2024/01/14 05:07:44;;;;;;;18.67;4.07;;;;;;;;;;6311060;22;20026;-80
2024/01/14 05:10:10;;;;;;;19.40;3.28;;;;;;;;;;6311196;22;20023;-81
2024/01/14 05:12:36;;;;;;;16.52;3.53;;;;;;;;;;6311318;22;20019;-81
2024/01/14 05:15:03;;;;;;;15.10;3.33;;;;;;;;;;6311743;22;20015;-81
2024/01/14 05:17:29;;;;;;;12.15;3.25;;;;;;;;;;6310895;22;20042;-81
2024/01/14 05:19:55;;;;;;;9.02;2.58;;;;;;;;;;6313878;22;20019;-80
2024/01/14 05:22:21;;;;;;;13.32;3.42;;;;;;;;;;6312910;22;20030;-80
2024/01/14 05:24:47;;;;;;;12.52;2.75;;;;;;;;;;6313405;22;20015;-80
2024/01/14 05:27:13;;;;;;;16.98;3.10;;;;;;;;;;6285774;22;20072;-80
2024/01/14 05:29:40;;;;;;;13.68;2.67;;;;;;;;;;6313006;22;20022;-80
2024/01/14 05:32:07;;;;;;;12.95;2.92;;;;;;;;;;6312327;22;20019;-80
2024/01/14 05:34:33;;;;;;;9.20;3.03;;;;;;;;;;6312221;22;20464;-80
2024/01/14 05:37:01;;;;;;;11.23;3.10;;;;;;;;;;6312528;22;20436;-80
2024/01/14 05:39:27;;;;;;;17.83;3.92;;;;;;;;;;6312993;22;20019;-80
2024/01/14 05:41:53;;;;;;;13.00;2.70;;;;;;;;;;6311918;22;20023;-81
2024/01/14 05:44:19;;;;;;;13.45;3.50;;;;;;;;;;6284927;22;20352;-81
2024/01/14 05:46:45;;;;;;;14.25;2.92;;;;;;;;;;6313550;22;20030;-80
2024/01/14 05:49:11;;;;;;;16.30;3.30;;;;;;;;;;6312909;22;20021;-80
2024/01/14 05:51:38;;;;;;;10.18;3.03;;;;;;;;;;6312799;22;20043;-80
2024/01/14 05:54:04;;;;;;;14.98;3.10;;;;;;;;;;6312149;22;20023;-81
2024/01/14 05:56:30;;;;;;;18.08;3.72;;;;;;;;;;6312847;22;20023;-81
2024/01/14 05:58:56;;;;;;;15.10;3.00;;;;;;;;;;6311930;22;20011;-81
2024/01/14 06:01:23;;;;;;;13.60;3.70;;;;;;;;;;6312669;22;20093;-81
2024/01/14 06:03:49;;;;;;;11.63;3.33;;;;;;;;;;6311899;22;20015;-81
2024/01/14 06:06:15;;;;;;;13.25;3.47;;;;;;;;;;6311480;22;20062;-81
2024/01/14 06:08:41;;;;;;;11.57;3.00;;;;;;;;;;6311851;22;20015;-81
2024/01/14 06:11:07;;;;;;;15.55;3.95;;;;;;;;;;6311063;22;20011;-81
2024/01/14 06:13:33;;;;;;;19.67;6.45;;;;;;;;;;6310904;22;20018;-80
2024/01/14 06:16:00;;;;;;;18.00;5.15;;;;;;;;;;6312310;22;20094;-80
2024/01/14 06:18:28;;;;;;;15.15;3.70;;;;;;;;;;6311340;22;20019;-80
2024/01/14 06:20:55;;;;;;;16.30;3.67;;;;;;;;;;6311792;22;20019;-81
2024/01/14 06:23:22;;;;;;;12.57;3.40;;;;;;;;;;6284379;22;20094;-81
2024/01/14 06:25:48;;;;;;;17.73;3.50;;;;;;;;;;6312883;22;20027;-81
2024/01/14 06:28:14;;;;;;;11.90;3.78;;;;;;;;;;6285034;22;20026;-81
2024/01/14 06:30:40;;;;;;;19.08;3.38;;;;;;;;;;6284632;22;20416;-80
2024/01/14 06:33:06;;;;;;;13.38;3.22;;;;;;;;;;6312439;22;20054;-81
2024/01/14 06:35:32;;;;;;;14.90;3.53;;;;;;;;;;6257352;22;20047;-81
2024/01/14 06:37:58;;;;;;;15.45;3.35;;;;;;;;;;6311012;22;20019;-81
2024/01/14 06:40:24;;;;;;;13.20;3.20;;;;;;;;;;6311361;22;20313;-81
2024/01/14 06:42:50;;;;;;;18.33;4.75;;;;;;;;;;6311539;22;20037;-81
2024/01/14 06:45:16;;;;;;;15.30;3.58;;;;;;;;;;6311622;22;20015;-81
2024/01/14 06:47:42;;;;;;;12.38;3.63;;;;;;;;;;6311621;22;20011;-81
2024/01/14 06:50:09;;;;;;;15.10;3.30;;;;;;;;;;6258787;22;20015;-81
2024/01/14 06:52:35;;;;;;;18.90;4.03;;;;;;;;;;6310526;22;20022;-81
2024/01/14 06:55:01;;;;;;;10.35;3.50;;;;;;;;;;6283489;22;20451;-81
2024/01/14 06:57:27;;;;;;;12.35;3.80;;;;;;;;;;6282891;22;20019;-81
2024/01/14 06:59:53;;;;;;;13.52;3.95;;;;;;;;;;6283698;22;20099;-81
2024/01/14 07:02:19;;;;;;;13.07;3.05;;;;;;;;;;6310738;22;20119;-81
2024/01/14 07:04:45;;;;;;;17.08;2.92;;;;;;;;;;6310745;22;20026;-81
2024/01/14 07:07:11;;;;;;;12.57;3.00;;;;;;;;;;6310874;22;20023;-81
2024/01/14 07:09:37;;;;;;;19.80;3.22;;;;;;;;;;6283506;22;20266;-81
2024/01/14 07:12:03;;;;;;;16.70;2.97;;;;;;;;;;6282898;22;20023;-81
2024/01/14 07:14:29;;;;;;;18.02;3.38;;;;;;;;;;6282913;22;20026;-82
2024/01/14 07:16:56;;;;;;;15.80;3.40;;;;;;;;;;6281124;22;20022;-82
2024/01/14 07:19:22;;;;;;;8.93;2.53;;;;;;;;;;6309671;22;20026;-82
2024/01/14 07:21:48;;;;;;;12.93;3.85;;;;;;;;;;6310032;22;20018;-82
2024/01/14 07:24:14;;;;;;;12.05;2.88;;;;;;;;;;6310183;22;20094;-81
2024/01/14 07:26:40;;;;;;;18.23;3.40;;;;;;;;;;6310445;22;20370;-81
2024/01/14 07:29:06;;;;;;;10.50;2.67;;;;;;;;;;6310155;22;20460;-81
2024/01/14 07:31:32;;;;;;;14.38;3.05;;;;;;;;;;6309975;22;20022;-81
2024/01/14 07:33:58;;;;;;;12.10;3.15;;;;;;;;;;6309669;22;20019;-82
2024/01/14 07:36:25;;;;;;;15.50;3.10;;;;;;;;;;6310328;22;20067;-82
2024/01/14 07:38:51;;;;;;;10.63;2.85;;;;;;;;;;6310477;22;20082;-82
2024/01/14 07:41:18;;;;;;;10.73;3.20;;;;;;;;;;6310230;22;20015;-82
2024/01/14 07:43:44;;;;;;;13.45;2.97;;;;;;;;;;6309996;22;20321;-82
2024/01/14 07:46:10;;;;;;;9.68;2.28;;;;;;;;;;6309674;22;20023;-82
2024/01/14 07:48:37;;;;;;;10.57;2.60;;;;;;;;;;6256615;22;20457;-82
2024/01/14 07:51:03;;;;;;;13.10;3.60;;;;;;;;;;6309868;22;20015;-82
2024/01/14 07:53:29;;;;;;;8.48;2.33;;;;;;;;;;6309427;22;20436;-82
2024/01/14 07:55:55;;;;;;;7.82;2.20;;;;;;;;;;6282867;22;20026;-82
2024/01/14 07:58:21;;;;;;;5.88;1.45;;;;;;;;;;6309726;22;20027;-82
2024/01/14 08:00:47;;;;;;;6.43;1.92;;;;;;;;;;6283147;22;20382;-82
2024/01/14 08:03:14;;;;;;;10.95;1.85;;;;;;;;;;6310397;22;20023;-82
2024/01/14 08:05:40;;;;;;;5.35;1.23;;;;;;;;;;6282088;22;20015;-82
2024/01/14 08:08:06;;;;;;;7.40;1.55;;;;;;;;;;6281761;22;20320;-82
2024/01/14 08:10:33;;;;;;;9.00;1.70;;;;;;;;;;6310262;22;20011;-82
2024/01/14 08:12:59;;;;;;;6.72;1.50;;;;;;;;;;6310238;22;20026;-82
2024/01/14 08:15:25;;;;;;;8.30;2.65;;;;;;;;;;6282476;22;20436;-83
2024/01/14 08:17:51;;;;;;;8.15;2.00;;;;;;;;;;6281929;22;20026;-83
2024/01/14 08:20:17;;;;;;;5.30;1.95;;;;;;;;;;6282141;22;20034;-82
2024/01/14 08:22:43;;;;;;;6.45;1.83;;;;;;;;;;6310913;22;20027;-82
2024/01/14 08:25:10;;;;;;;10.02;2.20;;;;;;;;;;6282929;22;20045;-82
2024/01/14 08:27:38;;;;;;;4.82;1.70;;;;;;;;;;6310128;22;20019;-82
2024/01/14 08:30:05;;;;;;;8.93;2.38;;;;;;;;;;6309949;22;20025;-82
2024/01/14 08:32:31;;;;;;;7.35;1.83;;;;;;;;;;6279919;22;20363;-82
2024/01/14 08:34:57;;;;;;;9.82;2.28;;;;;;;;;;6306865;22;20069;-82
2024/01/14 08:37:26;;;;;;;9.80;2.30;;;;;;;;;;6279575;22;20336;-82
2024/01/14 08:39:52;;;;;;;6.50;2.10;;;;;;;;;;6279605;22;20019;-82
2024/01/14 08:42:18;;;;;;;7.72;2.25;;;;;;;;;;6279897;22;20037;-82
2024/01/14 08:44:44;;;;;;;7.25;2.20;;;;;;;;;;6280013;22;20071;-82
2024/01/14 08:47:10;;;;;;;8.80;2.58;;;;;;;;;;6306991;22;20156;-82
2024/01/14 08:49:36;;;;;;;5.70;1.98;;;;;;;;;;6307215;22;20023;-82
2024/01/14 08:52:02;;;;;;;9.00;2.13;;;;;;;;;;6307676;22;20015;-82
2024/01/14 08:54:32;;;;;;;7.90;2.25;;;;;;;;;;6281937;22;20090;-82
2024/01/14 08:56:58;;;;;;;9.00;2.60;;;;;;;;;;6309778;22;20034;-82
2024/01/14 08:59:24;;;;;;;7.72;2.00;;;;;;;;;;6308894;22;20011;-82
2024/01/14 09:01:50;;;;;;;10.05;2.15;;;;;;;;;;6281128;22;20031;-82
2024/01/14 09:04:16;;;;;;;10.63;2.58;;;;;;;;;;6308905;22;20466;-81
2024/01/14 09:06:42;;;;;;;11.63;1.98;;;;;;;;;;6281848;22;20020;-81
2024/01/14 09:09:08;;;;;;;12.27;2.47;;;;;;;;;;6280934;22;20023;-81
2024/01/14 09:11:34;;;;;;;10.55;1.92;;;;;;;;;;6281389;22;20085;-82
2024/01/14 09:14:00;;;;;;;7.82;2.85;;;;;;;;;;6308448;22;20444;-82
2024/01/14 09:16:26;;;;;;;12.23;2.75;;;;;;;;;;6281655;22;20095;-82
2024/01/14 09:18:52;;;;;;;8.63;2.25;;;;;;;;;;6281131;22;20026;-82
2024/01/14 09:21:18;;;;;;;10.32;2.88;;;;;;;;;;6309699;22;20339;-82
2024/01/14 09:23:44;;;;;;;8.85;3.00;;;;;;;;;;6281943;22;20025;-82
2024/01/14 09:26:10;;;;;;;10.32;2.33;;;;;;;;;;6281684;22;20046;-82
2024/01/14 09:28:37;;;;;;;11.88;2.40;;;;;;;;;;6309467;22;20049;-82
2024/01/14 09:31:03;;;;;;;10.70;2.50;;;;;;;;;;6282493;22;20432;-82
2024/01/14 09:33:29;;;;;;;7.38;2.50;;;;;;;;;;6309559;22;20027;-82
2024/01/14 09:35:55;;;;;;;11.77;2.78;;;;;;;;;;6282190;22;20019;-82
2024/01/14 09:38:22;;;;;;;5.53;2.65;;;;;;;;;;6309823;22;20026;-82
2024/01/14 09:40:56;;;;;;;8.00;2.25;;;;;;;;;;6310130;22;20064;-82
2024/01/14 09:43:23;;;;;;;11.48;2.45;;;;;;;;;;6309976;22;20068;-81
2024/01/14 09:45:49;;;;;;;8.10;2.15;;;;;;;;;;6309845;22;20026;-81
2024/01/14 09:48:18;;;;;;;9.88;2.30;;;;;;;;;;6309480;22;20117;-82
2024/01/14 09:50:45;;;;;;;9.40;2.53;;;;;;;;;;6282227;22;20023;-82
2024/01/14 09:53:11;;;;;;;12.23;2.75;;;;;;;;;;6310436;22;20049;-82
2024/01/14 09:55:39;;;;;;;14.82;3.28;;;;;;;;;;6285604;22;20019;-81
2024/01/14 09:58:06;;;;;;;8.77;2.53;;;;;;;;;;6308995;22;20459;-82
2024/01/14 10:00:32;;;;;;;9.43;2.70;;;;;;;;;;6282295;22;20153;-81
2024/01/14 10:02:59;;;;;;;9.10;2.40;;;;;;;;;;6309891;22;20064;-82
2024/01/14 10:05:25;;;;;;;12.50;2.33;;;;;;;;;;6281151;22;20340;-82
2024/01/14 10:07:51;;;;;;;11.55;2.63;;;;;;;;;;6309524;22;20325;-82
2024/01/14 10:10:17;;;;;;;10.90;2.55;;;;;;;;;;6308986;22;20027;-82
2024/01/14 10:12:43;;;;;;;7.68;2.42;;;;;;;;;;6309121;22;20089;-82
2024/01/14 10:15:09;;;;;;;10.07;2.78;;;;;;;;;;6309357;22;20033;-83
2024/01/14 10:17:35;;;;;;;11.15;2.40;;;;;;;;;;6282450;22;20550;-83
2024/01/14 10:20:01;;;;;;;8.35;2.55;;;;;;;;;;6310327;22;20019;-81
2024/01/14 10:22:28;;;;;;;10.88;2.70;;;;;;;;;;6281552;22;20439;-82
2024/01/14 10:24:57;;;;;;;7.18;1.67;;;;;;;;;;6283787;22;20094;-82
2024/01/14 10:27:24;;;;;;;8.57;2.60;;;;;;;;;;6282726;22;20019;-82
2024/01/14 10:29:51;;;;;;;9.13;1.70;;;;;;;;;;6283858;22;20041;-82
2024/01/14 10:32:18;;;;;;;8.73;2.08;;;;;;;;;;6310253;22;20046;-82
2024/01/14 10:34:45;;;;;;;5.20;2.15;;;;;;;;;;6282796;22;20088;-82
2024/01/14 10:37:12;;;;;;;11.07;2.30;;;;;;;;;;6309937;22;20099;-82
2024/01/14 10:39:38;;;;;;;8.20;2.20;;;;;;;;;;6282843;22;20019;-82
2024/01/14 10:42:04;;;;;;;12.63;1.98;;;;;;;;;;6310555;22;20051;-82
2024/01/14 10:44:31;;;;;;;7.60;2.00;;;;;;;;;;6282590;22;20034;-82
2024/01/14 10:47:02;;;;;;;8.43;2.67;;;;;;;;;;6282973;22;20019;-82
2024/01/14 10:49:29;;;;;;;8.05;2.00;;;;;;;;;;6310986;22;20015;-82
2024/01/14 10:52:01;;;;;;;9.88;2.55;;;;;;;;;;6311557;22;20374;-82
2024/01/14 10:54:30;;;;;;;11.32;2.78;;;;;;;;;;6311981;22;20026;-82
2024/01/14 10:57:12;;;;;;;8.10;2.67;;;;;;;;;;6311322;22;20352;-81
2024/01/14 10:59:38;;;;;;;9.93;2.08;;;;;;;;;;6282814;22;20378;-82
2024/01/14 11:02:08;;;;;;;8.95;2.35;;;;;;;;;;6282359;22;20076;-82
2024/01/14 11:04:34;;;;;;;4.75;2.00;;;;;;;;;;6311106;22;20023;-82
2024/01/14 11:07:00;;;;;;;8.15;1.88;;;;;;;;;;6310730;22;20015;-82
2024/01/14 11:09:26;;;;;;;10.63;2.42;;;;;;;;;;6283866;22;20087;-82
2024/01/14 11:11:56;;;;;;;11.55;2.60;;;;;;;;;;6283318;22;20051;-82
2024/01/14 11:14:29;;;;;;;6.07;2.00;;;;;;;;;;6284010;22;20031;-82
2024/01/14 11:17:04;;;;;;;7.53;2.20;;;;;;;;;;6282384;22;20026;-82
2024/01/14 11:19:32;;;;;;;13.30;2.43;;;;;;;;;;6312240;22;20018;-82
2024/01/14 11:22:01;;;;;;;5.45;1.80;;;;;;;;;;6284487;22;20027;-82
2024/01/14 11:24:28;;;;;;;6.40;1.80;;;;;;;;;;6284563;22;20076;-82
2024/01/14 11:26:54;;;;;;;5.85;1.67;;;;;;;;;;6283607;22;20023;-82
2024/01/14 11:29:33;;;;;;;3.63;1.48;;;;;;;;;;6283861;22;20023;-82
2024/01/14 11:32:06;;;;;;;10.05;1.60;;;;;;;;;;6284218;22;20026;-82
2024/01/14 11:34:47;;;;;;;4.18;1.50;;;;;;;;;;6282769;22;20076;-82
2024/01/14 11:37:35;;;;;;;6.13;1.58;;;;;;;;;;6309898;22;20016;-82
2024/01/14 11:40:13;;;;;;;5.07;1.70;;;;;;;;;;6309757;22;20371;-82
2024/01/14 11:42:44;;;;;;;6.28;1.77;;;;;;;;;;6310425;22;20023;-81
2024/01/14 11:45:14;;;;;;;4.65;1.60;;;;;;;;;;6283329;22;20015;-82
2024/01/14 11:47:45;;;;;;;6.22;2.33;;;;;;;;;;6282501;22;20422;-82
2024/01/14 11:50:13;;;;;;;3.50;1.45;;;;;;;;;;6309322;22;20042;-82
2024/01/14 11:52:44;;;;;;;4.03;1.50;;;;;;;;;;6309494;22;20015;-82
2024/01/14 11:55:19;;;;;;;5.93;1.80;;;;;;;;;;6310722;22;20102;-82
2024/01/14 11:57:46;;;;;;;1.80;1.33;;;;;;;;;;6282428;22;20026;-82
2024/01/14 12:00:13;;;;;;;4.13;1.58;;;;;;;;;;6282248;22;20040;-82
2024/01/14 12:02:39;;;;;;;2.92;1.30;;;;;;;;;;6282919;22;20023;-82
2024/01/14 12:05:15;;;;;;;7.43;1.65;;;;;;;;;;6309781;22;20030;-82
2024/01/14 12:07:42;;;;;;;5.05;2.20;;;;;;;;;;6310238;22;20019;-81
2024/01/14 12:10:08;;;;;;;8.00;2.00;;;;;;;;;;6283176;22;20026;-82
2024/01/14 12:12:37;;;;;;;6.63;1.50;;;;;;;;;;6283215;22;20440;-82
2024/01/14 12:15:03;;;;;;;7.32;1.60;;;;;;;;;;6283112;22;20472;-82
2024/01/14 12:17:31;;;;;;;4.20;1.50;;;;;;;;;;6282009;22;20023;-82
2024/01/14 12:19:58;;;;;;;7.90;1.88;;;;;;;;;;6282280;22;20015;-82
2024/01/14 12:22:25;;;;;;;3.85;1.52;;;;;;;;;;6281451;22;20336;-82
2024/01/14 12:24:51;;;;;;;2.78;1.13;;;;;;;;;;6309050;22;20094;-82
2024/01/14 12:27:17;;;;;;;5.00;1.52;;;;;;;;;;6308360;22;20059;-82
2024/01/14 12:29:43;;;;;;;8.10;1.60;;;;;;;;;;6282266;22;20019;-82
2024/01/14 12:32:10;;;;;;;3.38;1.20;;;;;;;;;;6281539;22;20448;-82
2024/01/14 12:34:39;;;;;;;4.07;1.33;;;;;;;;;;6282231;22;20015;-82
2024/01/14 12:37:06;;;;;;;6.15;1.60;;;;;;;;;;6282115;22;20055;-83
2024/01/14 12:39:32;;;;;;;3.85;1.00;;;;;;;;;;6282228;22;20020;-82
2024/01/14 12:41:59;;;;;;;1.45;0.77;;;;;;;;;;6282194;22;20389;-82
2024/01/14 12:44:26;;;;;;;2.47;1.50;;;;;;;;;;6310734;22;20469;-82
2024/01/14 12:47:02;;;;;;;3.15;1.23;;;;;;;;;;6283135;22;20027;-83
2024/01/14 12:49:30;;;;;;;4.45;1.40;;;;;;;;;;6282788;22;20463;-82
2024/01/14 12:52:03;;;;;;;8.15;1.80;;;;;;;;;;6282013;22;20344;-82
2024/01/14 12:54:29;;;;;;;5.68;1.60;;;;;;;;;;6310397;22;20022;-82
2024/01/14 12:56:59;;;;;;;4.97;1.60;;;;;;;;;;6282686;22;20016;-82
2024/01/14 12:59:25;;;;;;;5.43;1.80;;;;;;;;;;6311303;22;20336;-82
2024/01/14 13:01:51;;;;;;;6.03;1.92;;;;;;;;;;6257560;22;20436;-82
2024/01/14 13:04:17;;;;;;;3.67;1.33;;;;;;;;;;6310143;22;20011;-82
2024/01/14 13:06:43;;;;;;;4.50;1.95;;;;;;;;;;6310425;22;20039;-82
2024/01/14 13:09:10;;;;;;;4.50;1.25;;;;;;;;;;6282697;22;20047;-82
2024/01/14 13:11:36;;;;;;;6.60;1.50;;;;;;;;;;6309873;22;20015;-82
2024/01/14 13:14:02;;;;;;;10.30;3.05;;;;;;;;;;6309875;22;20061;-82
2024/01/14 13:16:28;;;;;;;3.67;1.48;;;;;;;;;;6282405;22;20027;-82
2024/01/14 13:18:56;;;;;;;6.55;1.70;;;;;;;;;;6282198;22;20016;-82
2024/01/14 13:21:22;;;;;;;3.75;1.50;;;;;;;;;;6282346;22;20016;-82
2024/01/14 13:23:48;;;;;;;4.97;1.30;;;;;;;;;;6309553;22;20095;-82
2024/01/14 13:26:14;;;;;;;5.57;1.92;;;;;;;;;;6309791;22;20019;-82
2024/01/14 13:28:40;;;;;;;5.68;1.83;;;;;;;;;;6310815;22;20064;-82
2024/01/14 13:31:06;;;;;;;4.57;1.55;;;;;;;;;;6290855;22;20321;-82
2024/01/14 13:33:33;;;;;;;8.60;1.60;;;;;;;;;;6292081;22;20026;-81
2024/01/14 13:35:59;;;;;;;6.30;1.73;;;;;;;;;;6318852;22;20019;-82
2024/01/14 13:38:25;;;;;;;7.53;2.05;;;;;;;;;;6318701;22;20027;-82
2024/01/14 13:40:51;;;;;;;7.65;2.22;;;;;;;;;;6285618;22;20019;-82
2024/01/14 13:43:18;;;;;;;4.75;1.40;;;;;;;;;;6312582;22;20012;-82
2024/01/14 13:45:44;;;;;;;4.47;1.35;;;;;;;;;;6312627;22;20079;-82
2024/01/14 13:48:10;;;;;;;5.50;1.50;;;;;;;;;;6312928;22;20050;-82
2024/01/14 13:50:36;;;;;;;4.68;1.88;;;;;;;;;;6312296;22;20485;-82
2024/01/14 13:53:02;;;;;;;6.78;2.03;;;;;;;;;;6285255;22;20019;-82
2024/01/14 13:55:28;;;;;;;8.38;1.52;;;;;;;;;;6285412;22;20475;-82
2024/01/14 13:57:54;;;;;;;3.75;1.25;;;;;;;;;;6312847;22;20051;-82
2024/01/14 14:00:20;;;;;;;4.97;1.77;;;;;;;;;;6284860;22;20030;-81
2024/01/14 14:02:47;;;;;;;3.13;1.17;;;;;;;;;;6280758;22;20019;-82
2024/01/14 14:05:14;;;;;;;7.38;1.60;;;;;;;;;;6280747;22;20022;-82
2024/01/14 14:07:40;;;;;;;5.22;1.92;;;;;;;;;;6281175;22;20086;-81
2024/01/14 14:10:06;;;;;;;3.75;1.42;;;;;;;;;;6283532;22;20015;-82
2024/01/14 14:12:32;;;;;;;6.63;1.75;;;;;;;;;;6311504;22;20020;-81
2024/01/14 14:14:58;;;;;;;6.82;1.92;;;;;;;;;;6283222;22;20355;-81
2024/01/14 14:17:26;;;;;;;5.82;1.95;;;;;;;;;;6284064;22;20019;-82
2024/01/14 14:19:52;;;;;;;4.40;1.70;;;;;;;;;;6284241;22;20019;-82
2024/01/14 14:22:18;;;;;;;5.75;1.92;;;;;;;;;;6311277;22;20023;-82
2024/01/14 14:24:44;;;;;;;3.35;1.30;;;;;;;;;;6311447;22;20068;-82
2024/01/14 14:27:10;;;;;;;8.23;1.58;;;;;;;;;;6283637;22;20020;-82
2024/01/14 14:29:36;;;;;;;4.72;1.67;;;;;;;;;;6307957;22;20023;-82
2024/01/14 14:32:03;;;;;;;2.15;1.10;;;;;;;;;;6280481;22;20456;-82